createdAt,value
2023-04-22T00:01:31.224Z,47.50
2023-04-22T00:05:29.236Z,45.00
2023-04-22T00:09:27.207Z,45.20
2023-04-22T00:13:25.151Z,40.60
2023-04-22T00:17:23.172Z,41.90
2023-04-22T00:21:21.120Z,45.30
2023-04-22T00:25:19.218Z,37.10
2023-04-22T00:29:18.253Z,38.20
2023-04-22T00:33:16.205Z,40.00
2023-04-22T00:37:14.137Z,39.20
2023-04-22T00:41:12.174Z,44.10
2023-04-22T00:45:10.082Z,41.00
2023-04-22T00:49:08.144Z,42.30
2023-04-22T00:53:07.234Z,42.40
2023-04-22T00:57:05.201Z,38.00
2023-04-22T01:01:03.246Z,37.80
2023-04-22T01:05:02.182Z,35.40
2023-04-22T01:09:01.097Z,36.00
2023-04-22T01:12:59.101Z,41.10
2023-04-22T01:16:58.196Z,36.20
2023-04-22T01:20:56.079Z,32.70
2023-04-22T01:24:54.067Z,39.20
2023-04-22T01:28:52.106Z,38.90
2023-04-22T01:32:50.152Z,37.10
2023-04-22T01:36:50.056Z,36.20
2023-04-22T01:40:49.057Z,40.50
2023-04-22T01:44:47.024Z,37.80
2023-04-22T01:48:45.057Z,47.20
2023-04-22T01:52:43.167Z,36.50
2023-04-22T01:56:41.032Z,33.30
2023-04-22T02:00:39.113Z,37.80
2023-04-22T02:04:37.182Z,36.60
2023-04-22T02:08:35.020Z,36.50
2023-04-22T02:12:32.942Z,35.40
2023-04-22T02:16:31.228Z,33.10
2023-04-22T02:20:29.024Z,38.10
2023-04-22T02:24:30.127Z,40.60
2023-04-22T02:28:27.976Z,37.60
2023-04-22T02:32:26.020Z,37.10
2023-04-22T02:36:23.996Z,42.90
2023-04-22T02:40:21.994Z,36.20
2023-04-22T02:44:19.946Z,33.00
2023-04-22T02:48:17.940Z,41.20
2023-04-22T02:52:16.973Z,38.00
2023-04-22T02:56:16.060Z,39.20
2023-04-22T03:00:14.022Z,36.00
2023-04-22T03:04:13.141Z,35.80
2023-04-22T03:08:11.006Z,38.60
2023-04-22T03:12:08.978Z,44.80
2023-04-22T03:16:06.947Z,41.90
2023-04-22T03:20:04.939Z,41.20
2023-04-22T03:24:02.940Z,41.90
2023-04-22T03:28:01.918Z,40.40
2023-04-22T03:31:59.939Z,38.40
2023-04-22T03:35:58.905Z,37.40
2023-04-22T03:39:56.887Z,36.40
2023-04-22T03:43:54.965Z,39.00
2023-04-22T03:47:53.036Z,39.10
2023-04-22T03:51:58.002Z,41.10
2023-04-22T03:55:55.963Z,36.10
2023-04-22T03:59:55.927Z,37.20
2023-04-22T04:03:54.013Z,34.10
2023-04-22T04:07:57.991Z,37.80
2023-04-22T04:11:55.829Z,32.80
2023-04-22T04:15:57.044Z,39.30
2023-04-22T04:19:54.895Z,35.40
2023-04-22T04:23:52.826Z,40.80
2023-04-22T04:27:52.816Z,30.70
2023-04-22T04:31:51.021Z,37.60
2023-04-22T04:35:49.788Z,34.60
2023-04-22T04:39:50.835Z,35.90
2023-04-22T04:43:52.797Z,37.50
2023-04-22T04:47:56.981Z,36.60
2023-04-22T04:51:59.014Z,31.10
2023-04-22T04:55:57.792Z,34.70
2023-04-22T04:59:55.778Z,37.10
2023-04-22T05:03:57.055Z,34.40
2023-04-22T05:07:55.749Z,30.30
2023-04-22T05:11:54.939Z,25.30
2023-04-22T05:15:53.762Z,24.90
2023-04-22T05:19:51.937Z,22.50
2023-04-22T05:23:50.889Z,21.70
2023-04-22T05:27:48.752Z,22.30
2023-04-22T05:31:47.928Z,18.40
2023-04-22T05:35:45.795Z,14.80
2023-04-22T05:39:43.783Z,17.60
2023-04-22T05:43:41.809Z,15.60
2023-04-22T05:47:42.967Z,17.50
2023-04-22T05:51:41.798Z,19.40
2023-04-22T05:55:40.798Z,12.70
2023-04-22T05:59:39.146Z,15.20
2023-04-22T06:03:36.949Z,10.90
2023-04-22T06:07:34.728Z,15.80
2023-04-22T06:11:32.745Z,15.20
2023-04-22T06:15:30.802Z,14.60
2023-04-22T06:19:28.703Z,14.90
2023-04-22T06:23:26.687Z,18.10
2023-04-22T06:27:24.717Z,19.70
2023-04-22T06:31:22.928Z,20.20
2023-04-22T06:35:20.781Z,17.80
2023-04-22T06:39:19.747Z,18.60
2023-04-22T06:43:17.692Z,17.40
2023-04-22T06:47:33.788Z,16.40
2023-04-22T06:51:39.735Z,15.70
2023-04-22T06:55:37.654Z,13.10
2023-04-22T06:59:35.694Z,14.40
2023-04-22T07:03:35.872Z,14.90
2023-04-22T07:07:35.645Z,11.20
2023-04-22T07:11:34.740Z,9.20
2023-04-22T07:15:37.745Z,8.80
2023-04-22T07:19:35.734Z,10.70
2023-04-22T07:23:33.708Z,9.20
2023-04-22T07:27:31.628Z,9.10
2023-04-22T07:31:29.676Z,6.60
2023-04-22T07:35:27.636Z,11.30
2023-04-22T07:39:25.625Z,7.10
2023-04-22T07:43:23.659Z,6.30
2023-04-22T07:47:21.705Z,6.60
2023-04-22T07:51:19.611Z,6.70
2023-04-22T07:55:17.633Z,6.90
2023-04-22T07:59:15.717Z,5.90
2023-04-22T08:03:16.944Z,7.30
2023-04-22T08:07:31.736Z,8.20
2023-04-22T08:11:30.587Z,15.80
2023-04-22T08:15:28.574Z,8.80
2023-04-22T08:19:26.600Z,6.40
2023-04-22T08:23:24.597Z,10.80
2023-04-22T08:27:22.520Z,9.80
2023-04-22T08:31:20.584Z,6.60
2023-04-22T08:35:18.531Z,11.50
2023-04-22T08:39:17.572Z,11.60
2023-04-22T08:43:15.530Z,7.20
2023-04-22T08:47:13.726Z,8.70
2023-04-22T08:51:12.500Z,12.10
2023-04-22T08:55:10.672Z,8.40
2023-04-22T08:59:10.595Z,7.40
2023-04-22T09:03:08.687Z,4.10
2023-04-22T09:07:06.551Z,6.40
2023-04-22T09:11:04.514Z,5.30
2023-04-22T09:15:02.501Z,5.70
2023-04-22T09:19:00.513Z,4.40
2023-04-22T09:23:04.538Z,6.50
2023-04-22T09:27:04.906Z,5.50
2023-04-22T09:31:02.513Z,4.30
2023-04-22T09:35:09.504Z,5.80
2023-04-22T09:39:18.535Z,7.10
2023-04-22T09:43:19.517Z,8.30
2023-04-22T09:47:18.474Z,5.90
2023-04-22T09:51:16.564Z,4.00
2023-04-22T09:55:14.466Z,5.20
2023-04-22T09:59:12.479Z,6.50
2023-04-22T10:03:11.212Z,10.20
2023-04-22T10:07:09.518Z,7.30
2023-04-22T10:11:08.408Z,7.10
2023-04-22T10:15:06.488Z,6.60
2023-04-22T10:19:05.417Z,5.90
2023-04-22T10:23:03.571Z,5.60
2023-04-22T10:27:09.463Z,6.80
2023-04-22T10:31:08.471Z,4.30
2023-04-22T10:35:21.569Z,4.80
2023-04-22T10:39:19.463Z,7.10
2023-04-22T10:43:17.395Z,9.20
2023-04-22T10:47:15.520Z,5.60
2023-04-22T10:51:13.410Z,8.70
2023-04-22T10:55:12.617Z,4.90
2023-04-22T10:59:13.407Z,9.20
2023-04-22T11:03:20.511Z,5.40
2023-04-22T11:07:44.420Z,8.40
2023-04-22T11:11:42.630Z,7.30
2023-04-22T11:15:40.389Z,7.10
2023-04-22T11:19:38.657Z,7.30
2023-04-22T11:23:41.354Z,9.10
2023-04-22T11:27:40.466Z,8.30
2023-04-22T11:31:38.469Z,6.30
2023-04-22T11:35:43.366Z,6.00
2023-04-22T11:40:13.075Z,6.40
2023-04-22T11:48:07.349Z,7.50
2023-04-22T11:52:09.346Z,9.30
2023-04-22T11:56:07.377Z,8.30
2023-04-22T12:00:14.457Z,6.50
2023-04-22T12:04:15.426Z,9.30
2023-04-22T12:08:15.363Z,9.60
2023-04-22T12:12:13.565Z,7.40
2023-04-22T12:16:16.308Z,8.50
2023-04-22T12:20:15.318Z,9.10
2023-04-22T12:24:15.290Z,10.00
2023-04-22T12:28:13.323Z,8.20
2023-04-22T12:32:11.289Z,7.20
2023-04-22T12:36:10.312Z,5.90
2023-04-22T12:40:08.384Z,6.40
2023-04-22T12:44:06.368Z,5.70
2023-04-22T12:48:08.952Z,12.30
2023-04-22T12:52:07.348Z,11.00
2023-04-22T12:56:08.391Z,12.20
2023-04-22T13:00:06.379Z,8.40
2023-04-22T13:04:04.622Z,8.60
2023-04-22T13:08:06.989Z,6.00
2023-04-22T13:12:06.351Z,11.50
2023-04-22T13:16:05.300Z,6.90
2023-04-22T13:20:03.326Z,6.20
2023-04-22T13:24:01.274Z,7.20
2023-04-22T13:27:59.279Z,11.40
2023-04-22T13:31:58.409Z,7.40
2023-04-22T13:35:56.239Z,10.90
2023-04-22T13:39:54.353Z,6.80
2023-04-22T13:43:52.336Z,7.50
2023-04-22T13:47:51.272Z,8.20
2023-04-22T13:51:49.252Z,35.20
2023-04-22T13:55:50.237Z,8.70
2023-04-22T13:59:50.215Z,7.20
2023-04-22T14:03:48.338Z,6.00
2023-04-22T14:07:46.346Z,13.30
2023-04-22T14:11:46.270Z,8.80
2023-04-22T14:15:44.251Z,11.90
2023-04-22T14:19:44.167Z,8.90
2023-04-22T14:23:42.210Z,6.20
2023-04-22T14:27:41.186Z,7.80
2023-04-22T14:31:39.233Z,6.20
2023-04-22T14:35:37.182Z,10.50
2023-04-22T14:39:35.169Z,10.70
2023-04-22T14:43:34.402Z,6.40
2023-04-22T14:47:32.298Z,7.70
2023-04-22T14:51:30.250Z,9.10
2023-04-22T14:55:28.186Z,9.00
2023-04-22T14:59:26.212Z,10.00
2023-04-22T15:03:24.422Z,8.20
2023-04-22T15:07:22.170Z,6.30
2023-04-22T15:11:20.204Z,9.80
2023-04-22T15:15:20.161Z,9.00
2023-04-22T15:19:18.253Z,9.30
2023-04-22T15:23:16.129Z,9.80
2023-04-22T15:27:14.242Z,9.60
2023-04-22T15:31:20.152Z,8.50
2023-04-22T15:35:18.268Z,8.20
2023-04-22T15:39:17.221Z,9.50
2023-04-22T15:43:15.215Z,7.10
2023-04-22T15:47:14.139Z,6.10
2023-04-22T15:51:12.282Z,7.40
2023-04-22T15:55:10.142Z,7.10
2023-04-22T15:59:08.176Z,8.70
2023-04-22T16:03:07.342Z,7.30
2023-04-22T16:07:06.110Z,8.90
2023-04-22T16:11:04.165Z,7.10
2023-04-22T16:15:02.201Z,8.90
2023-04-22T16:19:00.235Z,6.20
2023-04-22T16:22:58.099Z,10.00
2023-04-22T16:26:56.208Z,9.90
2023-04-22T16:30:55.142Z,11.70
2023-04-22T16:34:53.076Z,14.10
2023-04-22T16:38:51.166Z,11.50
2023-04-22T16:42:49.118Z,15.80
2023-04-22T16:46:47.109Z,19.80
2023-04-22T16:50:45.027Z,25.60
2023-04-22T16:54:43.067Z,30.90
2023-04-22T16:58:41.140Z,23.00
2023-04-22T17:02:41.142Z,22.40
2023-04-22T17:06:40.107Z,20.80
2023-04-22T17:10:38.148Z,11.00
2023-04-22T17:14:36.029Z,13.40
2023-04-22T17:18:34.094Z,11.90
2023-04-22T17:22:32.084Z,12.30
2023-04-22T17:26:30.070Z,11.70
2023-04-22T17:30:28.150Z,10.80
2023-04-22T17:34:26.139Z,10.10
2023-04-22T17:38:24.096Z,10.80
2023-04-22T17:42:23.771Z,11.60
2023-04-22T17:46:25.096Z,12.60
2023-04-22T17:50:23.059Z,15.40
2023-04-22T17:54:21.141Z,11.20
2023-04-22T17:58:20.267Z,11.90
2023-04-22T18:02:12.327Z,14.40
2023-04-22T18:06:09.970Z,12.60
2023-04-22T18:10:08.033Z,15.00
2023-04-22T18:14:06.014Z,15.10
2023-04-22T18:18:05.069Z,17.10
2023-04-22T18:22:02.964Z,18.10
2023-04-22T18:26:00.957Z,15.70
2023-04-22T18:29:58.945Z,16.90
2023-04-22T18:33:56.928Z,21.00
2023-04-22T18:37:54.992Z,20.70
2023-04-22T18:41:52.920Z,21.20
2023-04-22T18:45:50.964Z,24.10
2023-04-22T18:49:48.907Z,22.30
2023-04-22T18:53:46.942Z,21.80
2023-04-22T18:57:44.964Z,25.90
2023-04-22T19:01:45.284Z,27.40
2023-04-22T19:05:43.011Z,26.70
2023-04-22T19:09:41.964Z,22.20
2023-04-22T19:13:39.899Z,23.20
2023-04-22T19:17:38.071Z,21.90
2023-04-22T19:21:37.328Z,26.20
2023-04-22T19:25:36.061Z,26.40
2023-04-22T19:29:33.856Z,25.30
2023-04-22T19:33:31.887Z,27.40
2023-04-22T19:37:32.911Z,26.20
2023-04-22T19:41:30.836Z,23.50
2023-04-22T19:45:28.945Z,30.20
2023-04-22T19:49:26.864Z,27.20
2023-04-22T19:53:24.882Z,26.10
2023-04-22T19:57:24.900Z,22.20
2023-04-22T20:01:22.864Z,23.60
2023-04-22T20:05:20.993Z,26.70
2023-04-22T20:09:18.973Z,28.70
2023-04-22T20:13:16.965Z,29.40
2023-04-22T20:17:15.797Z,38.50
2023-04-22T20:21:14.864Z,35.50
2023-04-22T20:25:17.854Z,33.30
2023-04-22T20:29:16.843Z,27.10
2023-04-22T20:33:19.674Z,38.30
2023-04-22T20:37:18.782Z,29.80
2023-04-22T20:41:21.796Z,34.00
2023-04-22T20:45:21.814Z,28.50
2023-04-22T20:49:19.770Z,41.50
2023-04-22T20:53:17.883Z,39.70
2023-04-22T20:57:15.919Z,44.90
2023-04-22T21:01:13.952Z,40.80
2023-04-22T21:05:11.802Z,42.00
2023-04-22T21:09:09.755Z,39.50
2023-04-22T21:13:08.781Z,44.60
2023-04-22T21:17:18.880Z,32.00
2023-04-22T21:21:17.752Z,39.90
2023-04-22T21:25:15.831Z,34.80
2023-04-22T21:29:13.732Z,45.60
2023-04-22T21:33:11.854Z,46.40
2023-04-22T21:37:09.723Z,37.90
2023-04-22T21:41:07.736Z,41.80
2023-04-22T21:45:05.692Z,47.30
2023-04-22T21:49:03.729Z,45.00
2023-04-22T21:53:01.719Z,39.60
2023-04-22T21:56:59.705Z,42.50
2023-04-22T22:00:57.815Z,44.90
2023-04-22T22:04:55.735Z,53.10
2023-04-22T22:08:55.690Z,52.90
2023-04-22T22:12:53.793Z,49.80
2023-04-22T22:16:51.855Z,58.60
2023-04-22T22:20:50.724Z,44.70
2023-04-22T22:24:49.795Z,43.80
2023-04-22T22:28:47.775Z,42.90
2023-04-22T22:32:46.897Z,56.40
2023-04-22T22:36:44.681Z,44.50
2023-04-22T22:40:42.624Z,47.90
2023-04-22T22:44:40.897Z,50.80
2023-04-22T22:48:38.674Z,45.30
2023-04-22T22:52:36.641Z,50.30
2023-04-22T22:56:34.729Z,59.00
2023-04-22T23:00:32.708Z,58.00
2023-04-22T23:04:30.749Z,55.00
2023-04-22T23:08:28.692Z,50.30
2023-04-22T23:12:26.617Z,52.00
2023-04-22T23:16:24.772Z,48.90
2023-04-22T23:20:23.604Z,58.10
2023-04-22T23:24:26.856Z,51.40
2023-04-22T23:28:24.610Z,50.80
2023-04-22T23:32:22.786Z,51.20
2023-04-22T23:36:23.593Z,54.00
2023-04-22T23:40:22.672Z,49.60
2023-04-22T23:44:20.526Z,49.80
2023-04-22T23:48:18.613Z,54.40
2023-04-22T23:52:17.608Z,50.60
2023-04-22T23:56:15.575Z,42.80
